Bezoek ook deze websites:

Mijn andere website

Weerstation Noordbergum

Weerstation in Leuven


U vindt ons ook hier:

Weather Underground


METAR rapporten vliegvelden

   
EHGG - Groningen/Eelde, Netherlands
Afstand tot: ONO 18 km
Gewijzigd: 20-07-2019 23:55
Licht bewolkt  
Licht bewolkt  
   Wind: ZZW 14.8 km/h
Wind: ZZW 14.8 km/h
Temperatuur: 17°C
Dauwpunt: 15°C
Vochtigheid: 88%
Barometer: 1011 hPa
Bewolking: Licht bewolkt
Zicht: meer dan 10 km
Bewolking: Licht bewolkt 2000 ft
EHGG 202155Z AUTO 21008KT 9999 FEW020 17/15 Q1011
EHLW - Leeuwarden Rnlaf, Netherlands
Afstand tot: WNW 45 km
Gewijzigd: 20-07-2019 23:55
Grotendeels bewolkt  
Grotendeels bewolkt  
   Wind: ZW 16.7 km/h
Wind: ZW 16.7 km/h
Temperatuur: 18°C
Dauwpunt: 16°C
Vochtigheid: 88%
Barometer: 1011 hPa
Bewolking: Grotendeels bewolkt
Zicht: meer dan 10 km
Bewolking: Licht bewolkt 4900 ft,
Grotendeels bewolkt 5400 ft,
Grotendeels bewolkt 6100 ft
EHLW 202155Z AUTO 23009KT 9999 FEW049 BKN054 BKN061 18/16 Q1011 BLU
EHVL - Vlieland Island, Netherlands
Afstand tot: WNW 98 km
Gewijzigd: 20-07-2019 23:55
Grotendeels bewolkt  
Grotendeels bewolkt  
   Wind: WZW 31.5 km/h
Wind: WZW 31.5 km/h
Temperatuur: 18°C
Dauwpunt: 15°C
Vochtigheid: 83%
Barometer: 1011 hPa
Bewolking: Grotendeels bewolkt
Zicht: meer dan 10 km
Bewolking: Grotendeels bewolkt 10000 ft
EHVL 202155Z AUTO 25017KT 9999 BKN100 18/15 Q1011 BLU
EHKD - De Kooy (navy), Netherlands
Afstand tot: W 106 km
Gewijzigd: 20-07-2019 23:55
Grotendeels bewolkt  
Grotendeels bewolkt  
   Wind: WZW 14.8 km/h
Wind: WZW 14.8 km/h
Temperatuur: 18°C
Dauwpunt: 16°C
Vochtigheid: 88%
Barometer: 1012 hPa
Bewolking: Grotendeels bewolkt
Zicht: meer dan 10 km
Bewolking: Grotendeels bewolkt 6100 ft,
Grotendeels bewolkt 6600 ft,
Grotendeels bewolkt 8200 ft
EHKD 202155Z AUTO 24008KT 9999 BKN061 BKN066 BKN082 18/16 Q1012 BLU
EHDL - Deelen Rnlafb, Netherlands
Afstand tot: ZZW 112 km
Gewijzigd: 20-07-2019 23:55
Grotendeels bewolkt  
Grotendeels bewolkt  
   Wind: ZW 13 km/h
Wind: ZW 13 km/h
Temperatuur: 17°C
Dauwpunt: 15°C
Vochtigheid: 88%
Barometer: 1013 hPa
Bewolking: Grotendeels bewolkt
Zicht: meer dan 10 km
Bewolking: Gedeeltelijk bewolkt 4200 ft,
Gedeeltelijk bewolkt 4700 ft,
Grotendeels bewolkt 5200 ft
EHDL 202155Z AUTO 23007KT 180V270 9999 SCT042 SCT047 BKN052 17/15 Q1013 BLU
EHAM - Amsterdam/Schiph, Netherlands
Afstand tot: ZW 132 km
Gewijzigd: 20-07-2019 23:55
Licht bewolkt  
Licht bewolkt  
   Wind: WZW 18.5 km/h
Wind: WZW 18.5 km/h
Temperatuur: 18°C
Dauwpunt: 15°C
Vochtigheid: 83%
Barometer: 1013 hPa
Bewolking: Licht bewolkt
Zicht: meer dan 10 km
Bewolking: Licht bewolkt 1600 ft
EHAM 202155Z 24010KT 210V270 9999 FEW016 18/15 Q1013 NOSIG

Script ontwikkeld door  Saratoga-weather.org Aangepast voor de template door  Weerstation Leuven

Apparatuur in gebruik:

Weerstation
Davis VP2

Weerprogramma
Meteobridge

Weercomputer
TP-link TL-MR3020

Webleverancier
Versio

Davis VP2

Meteobridge

TP-link TL-MR3020

Versio